createdAt,value
2023-02-11T00:01:46.662Z,0.69
2023-02-11T00:04:48.304Z,0.64
2023-02-11T00:07:50.016Z,0.55
2023-02-11T00:10:53.483Z,0.59
2023-02-11T00:13:55.195Z,0.38
2023-02-11T00:16:56.876Z,0.44
2023-02-11T00:19:58.572Z,0.43
2023-02-11T00:23:00.181Z,0.21
2023-02-11T00:26:01.938Z,0.09
2023-02-11T00:29:04.565Z,0.14
2023-02-11T00:32:07.209Z,0.15
2023-02-11T00:35:08.882Z,0.06
2023-02-11T00:38:10.523Z,0.07
2023-02-11T00:41:14.718Z,0.06
2023-02-11T00:44:16.660Z,0.21
2023-02-11T00:47:18.357Z,0.32
2023-02-11T00:50:20.126Z,0.22
2023-02-11T00:53:23.177Z,0.26
2023-02-11T00:56:24.890Z,0.42
2023-02-11T00:59:27.047Z,0.52
2023-02-11T01:02:28.892Z,0.52
2023-02-11T01:05:30.717Z,0.44
2023-02-11T01:08:32.363Z,0.52
2023-02-11T01:11:33.998Z,0.63
2023-02-11T01:14:35.696Z,0.73
2023-02-11T01:17:37.511Z,0.53
2023-02-11T01:20:39.221Z,0.45
2023-02-11T01:23:40.889Z,0.48
2023-02-11T01:26:42.526Z,0.43
2023-02-11T01:29:44.149Z,0.47
2023-02-11T01:32:45.778Z,0.36
2023-02-11T01:35:47.909Z,0.34
2023-02-11T01:38:50.011Z,0.20
2023-02-11T01:41:55.112Z,0.33
2023-02-11T01:44:57.766Z,0.28
2023-02-11T01:48:02.626Z,0.23
2023-02-11T01:51:13.163Z,0.24
2023-02-11T01:54:37.975Z,0.07
2023-02-11T01:57:42.552Z,0.31
2023-02-11T02:00:44.282Z,0.62
2023-02-11T02:03:52.403Z,0.73
2023-02-11T02:07:02.746Z,0.51
2023-02-11T02:10:09.688Z,0.27
2023-02-11T02:13:12.086Z,0.27
2023-02-11T02:16:17.014Z,0.41
2023-02-11T02:19:37.315Z,0.49
2023-02-11T02:23:08.567Z,0.33
2023-02-11T02:26:19.731Z,0.45
2023-02-11T02:29:49.115Z,0.31
2023-02-11T02:33:23.454Z,0.33
2023-02-11T02:36:33.835Z,0.32
2023-02-11T02:39:37.113Z,0.28
2023-02-11T02:42:41.207Z,0.29
2023-02-11T02:45:42.905Z,0.36
2023-02-11T02:48:45.830Z,0.26
2023-02-11T02:52:05.383Z,0.10
2023-02-11T02:55:20.704Z,0.17
2023-02-11T02:59:04.137Z,0.21
2023-02-11T03:02:23.483Z,0.17
2023-02-11T03:05:34.847Z,0.24
2023-02-11T03:08:46.254Z,0.24
2023-02-11T03:11:48.316Z,0.27
2023-02-11T03:14:52.243Z,0.23
2023-02-11T03:17:58.815Z,0.22
2023-02-11T03:21:02.507Z,0.04
2023-02-11T03:24:10.894Z,-0.06
2023-02-11T03:27:43.929Z,-0.11
2023-02-11T03:31:30.917Z,-0.15
2023-02-11T03:35:03.415Z,-0.24
2023-02-11T03:38:14.876Z,-0.31
2023-02-11T03:41:19.988Z,-0.44
2023-02-11T03:44:25.247Z,-0.50
2023-02-11T03:47:29.020Z,-0.37
2023-02-11T03:50:35.100Z,-0.25
2023-02-11T03:53:39.029Z,-0.29
2023-02-11T03:56:55.759Z,-0.39
2023-02-11T03:59:59.381Z,-0.57
2023-02-11T04:03:01.415Z,-0.57
2023-02-11T04:06:03.077Z,-0.37
2023-02-11T04:09:04.898Z,-0.40
2023-02-11T04:12:07.003Z,-0.50
2023-02-11T04:15:08.925Z,-0.55
2023-02-11T04:18:10.706Z,-0.61
2023-02-11T04:21:12.402Z,-0.57
2023-02-11T04:24:14.035Z,-0.24
2023-02-11T04:27:15.844Z,-0.34
2023-02-11T04:30:17.509Z,0.03
2023-02-11T04:33:19.181Z,0.15
2023-02-11T04:36:20.883Z,0.12
2023-02-11T04:39:22.464Z,-0.08
2023-02-11T04:42:24.468Z,-0.28
2023-02-11T04:45:26.156Z,-0.27
2023-02-11T04:48:27.733Z,-0.27
2023-02-11T04:51:29.722Z,-0.38
2023-02-11T04:54:31.388Z,-0.37
2023-02-11T04:57:33.037Z,-0.36
2023-02-11T05:00:34.720Z,-0.41
2023-02-11T05:03:36.682Z,-0.48
2023-02-11T05:06:39.840Z,-0.35
2023-02-11T05:09:41.592Z,-0.27
2023-02-11T05:12:43.209Z,-0.01
2023-02-11T05:15:44.942Z,-0.01
2023-02-11T05:18:46.992Z,-0.04
2023-02-11T05:22:01.786Z,0.02
2023-02-11T05:25:04.733Z,-0.03
2023-02-11T05:28:06.904Z,-0.19
2023-02-11T05:31:09.948Z,-0.35
2023-02-11T05:34:11.594Z,-0.30
2023-02-11T05:37:13.347Z,-0.41
2023-02-11T05:40:15.260Z,-0.52
2023-02-11T05:43:17.014Z,-0.60
2023-02-11T05:46:19.149Z,-0.62
2023-02-11T05:49:20.796Z,-0.63
2023-02-11T05:52:23.371Z,-0.61
2023-02-11T05:55:25.028Z,-0.52
2023-02-11T05:58:26.884Z,-0.10
2023-02-11T06:01:28.519Z,-0.48
2023-02-11T06:04:30.462Z,-0.71
2023-02-11T06:07:32.135Z,-0.75
2023-02-11T06:10:33.795Z,-0.72
2023-02-11T06:13:35.894Z,-0.66
2023-02-11T06:16:38.182Z,-0.68
2023-02-11T06:19:39.831Z,-0.93
2023-02-11T06:22:41.484Z,-0.87
2023-02-11T06:25:43.149Z,-1.06
2023-02-11T06:28:45.221Z,-0.87
2023-02-11T06:31:47.042Z,-0.67
2023-02-11T06:34:48.777Z,-0.72
2023-02-11T06:37:50.448Z,-0.50
2023-02-11T06:40:52.110Z,-0.40
2023-02-11T06:43:53.814Z,-0.43
2023-02-11T06:46:55.641Z,-0.51
2023-02-11T06:49:57.317Z,-0.52
2023-02-11T06:52:59.987Z,-0.36
2023-02-11T06:56:06.869Z,-0.34
2023-02-11T06:59:08.571Z,-0.30
2023-02-11T07:02:10.850Z,-0.31
2023-02-11T07:05:12.598Z,-0.27
2023-02-11T07:08:14.332Z,-0.26
2023-02-11T07:11:20.040Z,-0.19
2023-02-11T07:14:21.692Z,-0.18
2023-02-11T07:17:23.446Z,-0.24
2023-02-11T07:20:26.112Z,-0.18
2023-02-11T07:23:28.549Z,-0.18
2023-02-11T07:26:30.224Z,-0.15
2023-02-11T07:29:31.970Z,-0.16
2023-02-11T07:32:33.620Z,-0.14
2023-02-11T07:35:35.269Z,-0.16
2023-02-11T07:38:37.408Z,-0.09
2023-02-11T07:41:39.069Z,0.03
2023-02-11T07:44:41.181Z,0.13
2023-02-11T07:47:42.931Z,0.09
2023-02-11T07:50:44.659Z,0.14
2023-02-11T07:53:47.007Z,0.15
2023-02-11T07:56:48.633Z,0.27
2023-02-11T07:59:50.253Z,0.32
2023-02-11T08:02:51.908Z,0.42
2023-02-11T08:05:53.610Z,0.48
2023-02-11T08:08:55.685Z,0.44
2023-02-11T08:11:57.383Z,0.49
2023-02-11T08:14:59.157Z,0.53
2023-02-11T08:18:00.785Z,0.53
2023-02-11T08:21:07.206Z,0.50
2023-02-11T08:24:08.993Z,0.43
2023-02-11T08:27:10.742Z,0.43
2023-02-11T08:30:13.431Z,0.50
2023-02-11T08:33:15.189Z,0.50
2023-02-11T08:36:21.194Z,0.60
2023-02-11T08:39:23.145Z,0.35
2023-02-11T08:42:24.776Z,0.34
2023-02-11T08:45:26.422Z,0.22
2023-02-11T08:48:28.728Z,0.38
2023-02-11T08:51:31.590Z,0.87
2023-02-11T08:54:33.317Z,1.31
2023-02-11T08:57:34.991Z,1.48
2023-02-11T09:00:36.627Z,1.73
2023-02-11T09:03:38.289Z,1.85
2023-02-11T09:06:40.224Z,2.04
2023-02-11T09:09:41.867Z,2.23
2023-02-11T09:12:43.491Z,2.42
2023-02-11T09:15:46.812Z,2.77
2023-02-11T09:18:49.418Z,2.78
2023-02-11T09:21:51.125Z,2.99
2023-02-11T09:24:52.778Z,3.04
2023-02-11T09:27:54.617Z,3.03
2023-02-11T09:30:56.290Z,3.21
2023-02-11T09:34:00.816Z,3.41
2023-02-11T09:37:02.531Z,3.41
2023-02-11T09:40:04.932Z,3.54
2023-02-11T09:43:15.492Z,3.42
2023-02-11T09:46:18.847Z,3.30
2023-02-11T09:49:26.532Z,3.44
2023-02-11T09:52:41.821Z,3.44
2023-02-11T09:55:46.540Z,3.49
2023-02-11T09:58:48.214Z,3.56
2023-02-11T10:01:56.626Z,3.85
2023-02-11T10:05:21.006Z,3.66
2023-02-11T10:08:31.843Z,3.88
2023-02-11T10:12:12.675Z,3.99
2023-02-11T10:15:35.964Z,4.05
2023-02-11T10:18:45.893Z,4.27
2023-02-11T10:22:18.893Z,4.50
2023-02-11T10:25:38.888Z,4.56
2023-02-11T10:28:44.594Z,4.43
2023-02-11T10:31:47.813Z,4.60
2023-02-11T10:34:49.800Z,4.74
2023-02-11T10:37:51.597Z,4.62
2023-02-11T10:40:55.739Z,4.65
2023-02-11T10:44:00.138Z,4.76
2023-02-11T10:47:13.635Z,4.96
2023-02-11T10:50:28.000Z,5.30
2023-02-11T10:53:29.649Z,5.43
2023-02-11T10:56:40.852Z,5.38
2023-02-11T10:59:43.372Z,5.52
2023-02-11T11:02:46.800Z,5.72
2023-02-11T11:06:01.856Z,5.71
2023-02-11T11:09:04.643Z,5.31
2023-02-11T11:12:06.348Z,5.37
2023-02-11T11:15:11.251Z,5.67
2023-02-11T11:18:23.411Z,5.84
2023-02-11T11:21:30.496Z,5.83
2023-02-11T11:24:45.036Z,5.84
2023-02-11T11:27:53.233Z,6.18
2023-02-11T11:30:56.916Z,6.38
2023-02-11T11:34:01.526Z,6.36
2023-02-11T11:37:11.877Z,6.65
2023-02-11T11:40:13.491Z,6.84
2023-02-11T11:43:15.212Z,6.90
2023-02-11T11:46:23.732Z,7.23
2023-02-11T11:49:33.018Z,6.97
2023-02-11T11:52:46.404Z,7.53
2023-02-11T11:56:04.224Z,7.36
2023-02-11T11:59:16.506Z,7.50
2023-02-11T12:02:20.893Z,8.06
2023-02-11T12:05:33.087Z,7.83
2023-02-11T12:08:51.048Z,7.84
2023-02-11T12:12:26.805Z,8.16
2023-02-11T12:15:28.351Z,8.35
2023-02-11T12:18:44.935Z,8.43
2023-02-11T12:21:56.839Z,8.48
2023-02-11T12:25:21.637Z,8.62
2023-02-11T12:28:38.489Z,8.68
2023-02-11T12:31:49.348Z,9.25
2023-02-11T12:35:07.551Z,9.42
2023-02-11T12:38:20.105Z,9.62
2023-02-11T12:42:00.924Z,9.74
2023-02-11T12:45:05.603Z,9.96
2023-02-11T12:48:28.343Z,10.11
2023-02-11T12:52:14.262Z,9.61
2023-02-11T12:55:37.227Z,10.08
2023-02-11T12:58:45.390Z,9.96
2023-02-11T13:01:50.903Z,10.07
2023-02-11T13:04:57.191Z,10.08
2023-02-11T13:08:20.988Z,10.18
2023-02-11T13:11:35.010Z,9.96
2023-02-11T13:14:41.196Z,10.12
2023-02-11T13:18:02.815Z,10.58
2023-02-11T13:21:31.069Z,10.85
2023-02-11T13:24:48.049Z,10.74
2023-02-11T13:27:58.414Z,10.68
2023-02-11T13:31:03.948Z,10.50
2023-02-11T13:34:23.851Z,11.05
2023-02-11T13:37:37.409Z,10.74
2023-02-11T13:40:40.073Z,10.61
2023-02-11T13:43:41.872Z,10.73
2023-02-11T13:46:56.031Z,10.76
2023-02-11T13:49:59.993Z,10.74
2023-02-11T13:53:03.830Z,10.81
2023-02-11T13:56:11.420Z,11.33
2023-02-11T13:59:24.986Z,11.59
2023-02-11T14:02:54.196Z,11.39
2023-02-11T14:06:26.777Z,11.49
2023-02-11T14:09:36.015Z,11.39
2023-02-11T14:12:37.725Z,11.10
2023-02-11T14:15:40.846Z,11.25
2023-02-11T14:18:45.375Z,11.30
2023-02-11T14:21:47.316Z,11.43
2023-02-11T14:25:04.384Z,11.79
2023-02-11T14:28:21.659Z,12.07
2023-02-11T14:31:55.097Z,11.97
2023-02-11T14:35:24.355Z,11.83
2023-02-11T14:38:43.433Z,11.93
2023-02-11T14:41:48.925Z,11.95
2023-02-11T14:44:52.519Z,11.64
2023-02-11T14:48:08.458Z,11.91
2023-02-11T14:51:23.326Z,11.81
2023-02-11T14:54:28.120Z,11.61
2023-02-11T14:57:30.017Z,11.56
2023-02-11T15:00:31.745Z,11.48
2023-02-11T15:03:42.011Z,11.02
2023-02-11T15:06:47.644Z,11.02
2023-02-11T15:09:52.931Z,11.06
2023-02-11T15:12:55.349Z,11.22
2023-02-11T15:16:10.024Z,11.42
2023-02-11T15:19:28.772Z,11.04
2023-02-11T15:22:34.205Z,10.89
2023-02-11T15:25:43.487Z,10.86
2023-02-11T15:28:52.141Z,10.99
2023-02-11T15:32:06.078Z,10.91
2023-02-11T15:35:11.330Z,10.93
2023-02-11T15:38:13.505Z,10.76
2023-02-11T15:41:36.880Z,10.56
2023-02-11T15:44:38.554Z,10.19
2023-02-11T15:47:46.955Z,10.04
2023-02-11T15:50:55.206Z,9.72
2023-02-11T15:54:01.741Z,9.48
2023-02-11T15:57:07.543Z,9.07
2023-02-11T16:00:17.687Z,8.87
2023-02-11T16:03:22.487Z,8.74
2023-02-11T16:06:36.505Z,8.56
2023-02-11T16:09:39.813Z,8.23
2023-02-11T16:12:41.450Z,7.92
2023-02-11T16:15:46.992Z,7.67
2023-02-11T16:19:04.273Z,7.44
2023-02-11T16:22:10.620Z,7.28
2023-02-11T16:25:20.764Z,7.10
2023-02-11T16:28:22.480Z,7.11
2023-02-11T16:31:33.262Z,7.05
2023-02-11T16:34:35.541Z,6.83
2023-02-11T16:37:38.069Z,6.59
2023-02-11T16:40:39.763Z,6.43
2023-02-11T16:43:41.358Z,6.19
2023-02-11T16:46:43.703Z,5.99
2023-02-11T16:49:45.417Z,5.86
2023-02-11T16:52:47.269Z,5.59
2023-02-11T16:55:49.686Z,5.45
2023-02-11T16:58:51.275Z,5.48
2023-02-11T17:01:54.555Z,5.34
2023-02-11T17:04:59.061Z,5.25
2023-02-11T17:08:02.419Z,5.15
2023-02-11T17:11:04.441Z,5.11
2023-02-11T17:14:06.177Z,4.95
2023-02-11T17:17:09.134Z,4.80
2023-02-11T17:20:13.042Z,4.76
2023-02-11T17:23:14.744Z,4.55
2023-02-11T17:26:16.424Z,4.53
2023-02-11T17:29:21.232Z,4.32
2023-02-11T17:32:22.856Z,4.31
2023-02-11T17:35:24.582Z,4.25
2023-02-11T17:38:26.285Z,4.20
2023-02-11T17:41:28.557Z,4.06
2023-02-11T17:44:30.141Z,3.97
2023-02-11T17:47:31.788Z,3.94
2023-02-11T17:50:36.692Z,3.98
2023-02-11T17:53:38.297Z,3.95
2023-02-11T17:56:40.647Z,3.72
2023-02-11T17:59:42.218Z,3.71
2023-02-11T18:02:43.885Z,3.68
2023-02-11T18:05:45.460Z,3.62
2023-02-11T18:08:47.656Z,3.49
2023-02-11T18:11:50.579Z,3.53
2023-02-11T18:14:57.976Z,3.44
2023-02-11T18:17:59.864Z,3.37
2023-02-11T18:21:08.619Z,3.49
2023-02-11T18:24:10.316Z,3.42
2023-02-11T18:27:13.210Z,3.44
2023-02-11T18:30:17.958Z,3.39
2023-02-11T18:33:19.573Z,3.30
2023-02-11T18:36:22.358Z,3.26
2023-02-11T18:39:24.358Z,3.22
2023-02-11T18:42:26.160Z,3.18
2023-02-11T18:45:29.118Z,3.01
2023-02-11T18:48:30.847Z,2.97
2023-02-11T18:51:32.934Z,2.97
2023-02-11T18:54:34.487Z,2.92
2023-02-11T18:57:36.152Z,2.96
2023-02-11T19:00:41.621Z,3.04
2023-02-11T19:03:44.822Z,3.00
2023-02-11T19:06:49.473Z,3.11
2023-02-11T19:09:51.091Z,3.18
2023-02-11T19:12:56.458Z,3.35
2023-02-11T19:15:58.093Z,3.36
2023-02-11T19:18:59.683Z,3.39
2023-02-11T19:22:02.786Z,3.74
2023-02-11T19:25:04.616Z,3.80
2023-02-11T19:28:06.275Z,3.82
2023-02-11T19:31:09.121Z,3.83
2023-02-11T19:34:14.051Z,3.81
2023-02-11T19:37:15.775Z,3.78
2023-02-11T19:40:17.664Z,3.48
2023-02-11T19:43:19.270Z,3.63
2023-02-11T19:46:21.667Z,3.85
2023-02-11T19:49:24.580Z,3.80
2023-02-11T19:52:26.187Z,3.99
2023-02-11T19:55:27.864Z,3.83
2023-02-11T19:58:29.862Z,3.67
2023-02-11T20:01:31.856Z,3.83
2023-02-11T20:04:33.522Z,3.79
2023-02-11T20:07:35.524Z,3.35
2023-02-11T20:10:37.196Z,3.21
2023-02-11T20:13:39.666Z,3.19
2023-02-11T20:16:48.719Z,3.09
2023-02-11T20:19:50.977Z,3.33
2023-02-11T20:22:52.617Z,3.50
2023-02-11T20:25:54.429Z,3.28
2023-02-11T20:28:57.446Z,3.28
2023-02-11T20:31:59.316Z,3.22
2023-02-11T20:35:00.976Z,3.11
2023-02-11T20:38:03.679Z,3.17
2023-02-11T20:41:08.015Z,3.31
2023-02-11T20:44:10.596Z,3.17
2023-02-11T20:47:12.463Z,3.03
2023-02-11T20:50:14.135Z,3.10
2023-02-11T20:53:15.749Z,3.10
2023-02-11T20:56:20.151Z,3.00
2023-02-11T20:59:22.587Z,2.99
2023-02-11T21:02:24.924Z,3.09
2023-02-11T21:05:26.772Z,3.19
2023-02-11T21:08:28.366Z,3.15
2023-02-11T21:11:31.126Z,3.09
2023-02-11T21:14:34.002Z,3.36
2023-02-11T21:17:35.644Z,3.56
2023-02-11T21:20:37.352Z,3.62
2023-02-11T21:23:40.278Z,3.41
2023-02-11T21:26:41.981Z,3.46
2023-02-11T21:29:53.719Z,3.51
2023-02-11T21:32:58.294Z,3.47
2023-02-11T21:36:02.597Z,3.47
2023-02-11T21:39:04.345Z,3.41
2023-02-11T21:42:06.189Z,3.44
2023-02-11T21:45:08.827Z,3.24
2023-02-11T21:48:11.565Z,3.22
2023-02-11T21:51:16.032Z,3.20
2023-02-11T21:54:18.866Z,3.13
2023-02-11T21:57:20.460Z,3.13
2023-02-11T22:00:22.224Z,3.11
2023-02-11T22:03:23.948Z,3.10
2023-02-11T22:06:30.681Z,3.07
2023-02-11T22:09:32.252Z,3.04
2023-02-11T22:12:33.934Z,3.01
2023-02-11T22:15:35.573Z,2.97
2023-02-11T22:18:37.717Z,2.99
2023-02-11T22:21:39.485Z,2.98
2023-02-11T22:24:41.726Z,3.09
2023-02-11T22:27:43.551Z,3.16
2023-02-11T22:30:45.240Z,3.19
2023-02-11T22:33:47.116Z,3.16
2023-02-11T22:36:48.789Z,3.17
2023-02-11T22:39:50.432Z,3.14
2023-02-11T22:42:52.305Z,3.21
2023-02-11T22:45:56.435Z,3.21
2023-02-11T22:48:58.471Z,3.21
2023-02-11T22:52:00.379Z,3.27
2023-02-11T22:55:02.567Z,3.26
2023-02-11T22:58:04.475Z,3.32
2023-02-11T23:01:06.602Z,3.36
2023-02-11T23:04:11.579Z,3.35
2023-02-11T23:07:13.389Z,3.39
2023-02-11T23:10:15.578Z,3.40
2023-02-11T23:13:17.293Z,3.45
2023-02-11T23:16:22.524Z,3.48
2023-02-11T23:19:24.228Z,3.46
2023-02-11T23:22:25.864Z,3.44
2023-02-11T23:25:27.552Z,3.47
2023-02-11T23:28:29.447Z,3.57
2023-02-11T23:31:35.112Z,3.57
2023-02-11T23:34:36.888Z,3.61
2023-02-11T23:37:38.510Z,3.63
2023-02-11T23:40:40.146Z,3.64
2023-02-11T23:43:42.129Z,3.59
2023-02-11T23:46:43.743Z,3.58
2023-02-11T23:49:45.330Z,3.58
2023-02-11T23:52:46.993Z,3.54
2023-02-11T23:55:49.059Z,3.49
2023-02-11T23:58:52.806Z,3.55
